sensor_id;sensor_type;location;lat;lon;timestamp;temperature;humidity
51825;DHT22;37879;52.986;6.282;2022-12-29T00:02:07;10.00;99.90
51825;DHT22;37879;52.986;6.282;2022-12-29T00:04:33;10.00;99.90
51825;DHT22;37879;52.986;6.282;2022-12-29T00:06:59;10.00;99.90
51825;DHT22;37879;52.986;6.282;2022-12-29T00:09:25;10.00;99.90
51825;DHT22;37879;52.986;6.282;2022-12-29T00:11:52;10.00;99.90
51825;DHT22;37879;52.986;6.282;2022-12-29T00:14:18;10.00;99.90
51825;DHT22;37879;52.986;6.282;2022-12-29T00:17:02;10.00;99.90
51825;DHT22;37879;52.986;6.282;2022-12-29T00:19:28;10.00;99.90
51825;DHT22;37879;52.986;6.282;2022-12-29T00:22:13;10.00;99.90
51825;DHT22;37879;52.986;6.282;2022-12-29T00:24:58;10.00;99.90
51825;DHT22;37879;52.986;6.282;2022-12-29T00:27:43;10.00;99.90
51825;DHT22;37879;52.986;6.282;2022-12-29T00:30:27;10.00;99.90
51825;DHT22;37879;52.986;6.282;2022-12-29T00:33:16;10.10;99.90
51825;DHT22;37879;52.986;6.282;2022-12-29T00:36:13;10.10;99.90
51825;DHT22;37879;52.986;6.282;2022-12-29T00:38:44;10.10;99.90
51825;DHT22;37879;52.986;6.282;2022-12-29T00:41:29;10.10;99.90
51825;DHT22;37879;52.986;6.282;2022-12-29T00:44:14;10.10;99.90
51825;DHT22;37879;52.986;6.282;2022-12-29T00:46:41;10.10;99.90
51825;DHT22;37879;52.986;6.282;2022-12-29T00:49:10;10.10;99.90
51825;DHT22;37879;52.986;6.282;2022-12-29T00:51:59;10.20;99.90
51825;DHT22;37879;52.986;6.282;2022-12-29T00:54:26;10.10;99.90
51825;DHT22;37879;52.986;6.282;2022-12-29T00:56:52;10.20;99.90
51825;DHT22;37879;52.986;6.282;2022-12-29T00:59:18;10.10;99.90
51825;DHT22;37879;52.986;6.282;2022-12-29T01:01:45;10.10;99.90
51825;DHT22;37879;52.986;6.282;2022-12-29T01:04:12;10.10;99.90
51825;DHT22;37879;52.986;6.282;2022-12-29T01:06:39;10.20;99.90
51825;DHT22;37879;52.986;6.282;2022-12-29T01:09:06;10.20;99.90
51825;DHT22;37879;52.986;6.282;2022-12-29T01:11:51;10.20;99.90
51825;DHT22;37879;52.986;6.282;2022-12-29T01:14:18;10.20;99.90
51825;DHT22;37879;52.986;6.282;2022-12-29T01:16:44;10.20;99.90
51825;DHT22;37879;52.986;6.282;2022-12-29T01:19:10;10.20;99.90
51825;DHT22;37879;52.986;6.282;2022-12-29T01:21:37;10.30;99.90
51825;DHT22;37879;52.986;6.282;2022-12-29T01:24:03;10.30;99.90
51825;DHT22;37879;52.986;6.282;2022-12-29T01:26:28;10.20;99.90
51825;DHT22;37879;52.986;6.282;2022-12-29T01:28:54;10.30;99.90
51825;DHT22;37879;52.986;6.282;2022-12-29T01:31:20;10.20;99.90
51825;DHT22;37879;52.986;6.282;2022-12-29T01:33:46;10.20;99.90
51825;DHT22;37879;52.986;6.282;2022-12-29T01:36:14;10.20;99.90
51825;DHT22;37879;52.986;6.282;2022-12-29T01:38:40;10.20;99.90
51825;DHT22;37879;52.986;6.282;2022-12-29T01:41:07;10.20;99.90
51825;DHT22;37879;52.986;6.282;2022-12-29T01:43:51;10.20;99.90
51825;DHT22;37879;52.986;6.282;2022-12-29T01:46:33;10.20;99.90
51825;DHT22;37879;52.986;6.282;2022-12-29T01:51:41;10.20;99.90
51825;DHT22;37879;52.986;6.282;2022-12-29T01:54:12;10.10;99.90
51825;DHT22;37879;52.986;6.282;2022-12-29T01:56:39;10.10;99.90
51825;DHT22;37879;52.986;6.282;2022-12-29T01:59:08;10.10;99.90
51825;DHT22;37879;52.986;6.282;2022-12-29T02:01:35;10.10;99.90
51825;DHT22;37879;52.986;6.282;2022-12-29T02:04:01;10.10;99.90
51825;DHT22;37879;52.986;6.282;2022-12-29T02:06:39;10.20;99.90
51825;DHT22;37879;52.986;6.282;2022-12-29T02:09:06;10.20;99.90
51825;DHT22;37879;52.986;6.282;2022-12-29T02:11:32;10.20;99.90
51825;DHT22;37879;52.986;6.282;2022-12-29T02:14:00;10.30;99.90
51825;DHT22;37879;52.986;6.282;2022-12-29T02:35:27;10.20;99.90
51825;DHT22;37879;52.986;6.282;2022-12-29T02:38:23;10.30;99.90
51825;DHT22;37879;52.986;6.282;2022-12-29T02:41:34;10.30;99.90
51825;DHT22;37879;52.986;6.282;2022-12-29T02:47:00;10.30;99.90
51825;DHT22;37879;52.986;6.282;2022-12-29T02:49:38;10.30;99.90
51825;DHT22;37879;52.986;6.282;2022-12-29T02:52:31;10.30;99.90
51825;DHT22;37879;52.986;6.282;2022-12-29T02:54:56;10.20;99.90
51825;DHT22;37879;52.986;6.282;2022-12-29T03:00:10;10.40;99.90
51825;DHT22;37879;52.986;6.282;2022-12-29T03:03:00;10.40;99.90
51825;DHT22;37879;52.986;6.282;2022-12-29T03:05:45;10.40;99.90
51825;DHT22;37879;52.986;6.282;2022-12-29T03:13:39;10.30;99.90
51825;DHT22;37879;52.986;6.282;2022-12-29T03:19:02;10.30;99.90
51825;DHT22;37879;52.986;6.282;2022-12-29T03:21:39;10.30;99.90
51825;DHT22;37879;52.986;6.282;2022-12-29T03:24:30;10.30;99.90
51825;DHT22;37879;52.986;6.282;2022-12-29T03:26:59;10.30;99.90
51825;DHT22;37879;52.986;6.282;2022-12-29T03:29:29;10.30;99.90
51825;DHT22;37879;52.986;6.282;2022-12-29T03:31:56;10.30;99.90
51825;DHT22;37879;52.986;6.282;2022-12-29T03:34:24;10.30;99.90
51825;DHT22;37879;52.986;6.282;2022-12-29T03:37:00;10.30;99.90
51825;DHT22;37879;52.986;6.282;2022-12-29T03:39:28;10.20;99.90
51825;DHT22;37879;52.986;6.282;2022-12-29T03:42:00;10.20;99.90
51825;DHT22;37879;52.986;6.282;2022-12-29T03:44:39;10.20;99.90
51825;DHT22;37879;52.986;6.282;2022-12-29T03:47:07;10.20;99.90
51825;DHT22;37879;52.986;6.282;2022-12-29T03:49:33;10.20;99.90
51825;DHT22;37879;52.986;6.282;2022-12-29T03:51:59;10.20;99.90
51825;DHT22;37879;52.986;6.282;2022-12-29T03:54:25;10.20;99.90
51825;DHT22;37879;52.986;6.282;2022-12-29T03:56:50;10.20;99.90
51825;DHT22;37879;52.986;6.282;2022-12-29T03:59:16;10.20;99.90
51825;DHT22;37879;52.986;6.282;2022-12-29T04:01:42;10.20;99.90
51825;DHT22;37879;52.986;6.282;2022-12-29T04:04:08;10.20;99.90
51825;DHT22;37879;52.986;6.282;2022-12-29T04:06:34;10.20;99.90
51825;DHT22;37879;52.986;6.282;2022-12-29T04:08:59;10.20;99.90
51825;DHT22;37879;52.986;6.282;2022-12-29T04:11:25;10.20;99.90
51825;DHT22;37879;52.986;6.282;2022-12-29T04:13:51;10.20;99.90
51825;DHT22;37879;52.986;6.282;2022-12-29T04:16:16;10.20;99.90
51825;DHT22;37879;52.986;6.282;2022-12-29T04:18:42;10.30;99.90
51825;DHT22;37879;52.986;6.282;2022-12-29T04:21:08;10.30;99.90
51825;DHT22;37879;52.986;6.282;2022-12-29T04:23:36;10.20;99.90
51825;DHT22;37879;52.986;6.282;2022-12-29T04:26:02;10.20;99.90
51825;DHT22;37879;52.986;6.282;2022-12-29T04:28:29;10.20;99.90
51825;DHT22;37879;52.986;6.282;2022-12-29T04:30:54;10.20;99.90
51825;DHT22;37879;52.986;6.282;2022-12-29T04:33:21;10.20;99.90
51825;DHT22;37879;52.986;6.282;2022-12-29T04:35:47;10.20;99.90
51825;DHT22;37879;52.986;6.282;2022-12-29T04:38:13;10.20;99.90
51825;DHT22;37879;52.986;6.282;2022-12-29T04:40:41;10.20;99.90
51825;DHT22;37879;52.986;6.282;2022-12-29T04:43:07;10.10;99.90
51825;DHT22;37879;52.986;6.282;2022-12-29T04:45:33;10.10;99.90
51825;DHT22;37879;52.986;6.282;2022-12-29T04:47:59;10.00;99.90
51825;DHT22;37879;52.986;6.282;2022-12-29T04:50:25;9.90;99.90
51825;DHT22;37879;52.986;6.282;2022-12-29T04:52:51;9.90;99.90
51825;DHT22;37879;52.986;6.282;2022-12-29T04:55:17;9.80;99.90
51825;DHT22;37879;52.986;6.282;2022-12-29T04:57:42;9.80;99.90
51825;DHT22;37879;52.986;6.282;2022-12-29T05:00:09;9.70;99.90
51825;DHT22;37879;52.986;6.282;2022-12-29T05:02:35;9.70;99.90
51825;DHT22;37879;52.986;6.282;2022-12-29T05:05:01;9.60;99.90
51825;DHT22;37879;52.986;6.282;2022-12-29T05:07:27;9.60;99.90
51825;DHT22;37879;52.986;6.282;2022-12-29T05:09:52;9.60;99.90
51825;DHT22;37879;52.986;6.282;2022-12-29T05:12:18;9.60;99.90
51825;DHT22;37879;52.986;6.282;2022-12-29T05:14:44;9.60;99.90
51825;DHT22;37879;52.986;6.282;2022-12-29T05:17:10;9.50;99.90
51825;DHT22;37879;52.986;6.282;2022-12-29T05:19:35;9.50;99.90
51825;DHT22;37879;52.986;6.282;2022-12-29T05:22:01;10.30;99.90
51825;DHT22;37879;52.986;6.282;2022-12-29T05:24:27;9.40;99.90
51825;DHT22;37879;52.986;6.282;2022-12-29T05:26:52;9.40;99.90
51825;DHT22;37879;52.986;6.282;2022-12-29T05:29:18;9.30;99.90
51825;DHT22;37879;52.986;6.282;2022-12-29T05:31:44;9.30;99.90
51825;DHT22;37879;52.986;6.282;2022-12-29T05:34:13;9.30;99.90
51825;DHT22;37879;52.986;6.282;2022-12-29T05:36:39;9.20;99.90
51825;DHT22;37879;52.986;6.282;2022-12-29T05:39:04;9.20;99.90
51825;DHT22;37879;52.986;6.282;2022-12-29T05:41:30;9.20;99.90
51825;DHT22;37879;52.986;6.282;2022-12-29T05:43:56;9.20;99.90
51825;DHT22;37879;52.986;6.282;2022-12-29T05:46:21;9.20;99.90
51825;DHT22;37879;52.986;6.282;2022-12-29T05:48:47;9.20;99.90
51825;DHT22;37879;52.986;6.282;2022-12-29T05:51:13;9.30;99.90
51825;DHT22;37879;52.986;6.282;2022-12-29T05:53:38;9.30;99.90
51825;DHT22;37879;52.986;6.282;2022-12-29T05:56:04;9.30;99.90
51825;DHT22;37879;52.986;6.282;2022-12-29T05:58:30;9.30;99.90
51825;DHT22;37879;52.986;6.282;2022-12-29T06:00:56;9.20;99.90
51825;DHT22;37879;52.986;6.282;2022-12-29T06:03:21;9.20;99.90
51825;DHT22;37879;52.986;6.282;2022-12-29T06:05:47;9.20;99.90
51825;DHT22;37879;52.986;6.282;2022-12-29T06:08:13;9.20;99.90
51825;DHT22;37879;52.986;6.282;2022-12-29T06:10:39;9.20;99.90
51825;DHT22;37879;52.986;6.282;2022-12-29T06:13:05;9.20;99.90
51825;DHT22;37879;52.986;6.282;2022-12-29T06:15:34;9.30;99.90
51825;DHT22;37879;52.986;6.282;2022-12-29T06:18:00;9.30;99.90
51825;DHT22;37879;52.986;6.282;2022-12-29T06:20:26;9.30;99.90
51825;DHT22;37879;52.986;6.282;2022-12-29T06:22:52;9.30;99.90
51825;DHT22;37879;52.986;6.282;2022-12-29T06:25:17;9.30;99.90
51825;DHT22;37879;52.986;6.282;2022-12-29T06:27:43;9.30;99.90
51825;DHT22;37879;52.986;6.282;2022-12-29T06:30:10;9.30;99.90
51825;DHT22;37879;52.986;6.282;2022-12-29T06:32:36;9.30;99.90
51825;DHT22;37879;52.986;6.282;2022-12-29T06:35:03;9.30;99.90
51825;DHT22;37879;52.986;6.282;2022-12-29T06:37:29;9.20;99.90
51825;DHT22;37879;52.986;6.282;2022-12-29T06:39:55;9.20;99.90
51825;DHT22;37879;52.986;6.282;2022-12-29T06:42:21;9.20;99.90
51825;DHT22;37879;52.986;6.282;2022-12-29T06:44:46;9.20;99.90
51825;DHT22;37879;52.986;6.282;2022-12-29T06:47:12;9.10;99.90
51825;DHT22;37879;52.986;6.282;2022-12-29T06:49:38;9.10;99.90
51825;DHT22;37879;52.986;6.282;2022-12-29T06:52:04;9.10;99.90
51825;DHT22;37879;52.986;6.282;2022-12-29T06:54:33;9.10;99.90
51825;DHT22;37879;52.986;6.282;2022-12-29T06:56:59;9.20;99.90
51825;DHT22;37879;52.986;6.282;2022-12-29T06:59:24;9.30;99.90
51825;DHT22;37879;52.986;6.282;2022-12-29T07:01:51;9.30;99.90
51825;DHT22;37879;52.986;6.282;2022-12-29T07:04:17;9.30;99.90
51825;DHT22;37879;52.986;6.282;2022-12-29T07:06:43;9.30;99.90
51825;DHT22;37879;52.986;6.282;2022-12-29T07:09:09;9.30;99.90
51825;DHT22;37879;52.986;6.282;2022-12-29T07:11:35;9.30;99.90
51825;DHT22;37879;52.986;6.282;2022-12-29T07:14:02;9.30;99.90
51825;DHT22;37879;52.986;6.282;2022-12-29T07:16:28;9.30;99.90
51825;DHT22;37879;52.986;6.282;2022-12-29T07:18:56;9.40;99.90
51825;DHT22;37879;52.986;6.282;2022-12-29T07:21:22;9.30;99.90
51825;DHT22;37879;52.986;6.282;2022-12-29T07:23:47;9.40;99.90
51825;DHT22;37879;52.986;6.282;2022-12-29T07:26:14;9.30;99.90
51825;DHT22;37879;52.986;6.282;2022-12-29T07:28:43;9.40;99.90
51825;DHT22;37879;52.986;6.282;2022-12-29T07:31:17;9.40;99.90
51825;DHT22;37879;52.986;6.282;2022-12-29T07:33:44;9.40;99.90
51825;DHT22;37879;52.986;6.282;2022-12-29T07:36:11;9.40;99.90
51825;DHT22;37879;52.986;6.282;2022-12-29T07:38:37;9.40;99.90
51825;DHT22;37879;52.986;6.282;2022-12-29T07:41:03;9.40;99.90
51825;DHT22;37879;52.986;6.282;2022-12-29T07:43:28;9.40;99.90
51825;DHT22;37879;52.986;6.282;2022-12-29T07:45:54;9.40;99.90
51825;DHT22;37879;52.986;6.282;2022-12-29T07:48:20;9.40;99.90
51825;DHT22;37879;52.986;6.282;2022-12-29T07:50:46;9.40;99.90
51825;DHT22;37879;52.986;6.282;2022-12-29T07:53:11;9.40;99.90
51825;DHT22;37879;52.986;6.282;2022-12-29T07:55:37;9.40;99.90
51825;DHT22;37879;52.986;6.282;2022-12-29T07:58:03;9.40;99.90
51825;DHT22;37879;52.986;6.282;2022-12-29T08:00:29;9.40;99.90
51825;DHT22;37879;52.986;6.282;2022-12-29T08:02:54;9.40;99.90
51825;DHT22;37879;52.986;6.282;2022-12-29T08:05:20;9.40;99.90
51825;DHT22;37879;52.986;6.282;2022-12-29T08:07:47;9.40;99.90
51825;DHT22;37879;52.986;6.282;2022-12-29T08:10:13;9.40;99.90
51825;DHT22;37879;52.986;6.282;2022-12-29T08:12:40;9.30;99.90
51825;DHT22;37879;52.986;6.282;2022-12-29T08:15:07;9.30;99.90
51825;DHT22;37879;52.986;6.282;2022-12-29T08:17:33;9.40;99.90
51825;DHT22;37879;52.986;6.282;2022-12-29T08:19:59;9.30;99.90
51825;DHT22;37879;52.986;6.282;2022-12-29T08:22:25;9.40;99.90
51825;DHT22;37879;52.986;6.282;2022-12-29T08:24:50;9.40;99.90
51825;DHT22;37879;52.986;6.282;2022-12-29T08:27:17;9.40;99.90
51825;DHT22;37879;52.986;6.282;2022-12-29T08:29:43;9.40;99.90
51825;DHT22;37879;52.986;6.282;2022-12-29T08:32:09;9.40;99.90
51825;DHT22;37879;52.986;6.282;2022-12-29T08:34:34;9.40;99.90
51825;DHT22;37879;52.986;6.282;2022-12-29T08:37:00;9.40;99.90
51825;DHT22;37879;52.986;6.282;2022-12-29T08:39:26;9.40;99.90
51825;DHT22;37879;52.986;6.282;2022-12-29T08:41:52;9.40;99.90
51825;DHT22;37879;52.986;6.282;2022-12-29T08:44:18;9.40;99.90
51825;DHT22;37879;52.986;6.282;2022-12-29T08:46:43;9.50;99.90
51825;DHT22;37879;52.986;6.282;2022-12-29T08:49:09;9.50;99.90
51825;DHT22;37879;52.986;6.282;2022-12-29T08:51:35;9.50;99.90
51825;DHT22;37879;52.986;6.282;2022-12-29T08:54:01;9.50;99.90
51825;DHT22;37879;52.986;6.282;2022-12-29T08:56:27;9.50;99.90
51825;DHT22;37879;52.986;6.282;2022-12-29T08:58:53;9.40;99.90
51825;DHT22;37879;52.986;6.282;2022-12-29T09:01:19;9.50;99.90
51825;DHT22;37879;52.986;6.282;2022-12-29T09:03:45;9.50;99.90
51825;DHT22;37879;52.986;6.282;2022-12-29T09:06:11;9.50;99.90
51825;DHT22;37879;52.986;6.282;2022-12-29T09:08:37;9.50;99.90
51825;DHT22;37879;52.986;6.282;2022-12-29T09:11:12;9.50;99.90
51825;DHT22;37879;52.986;6.282;2022-12-29T09:13:38;9.40;99.90
51825;DHT22;37879;52.986;6.282;2022-12-29T09:16:04;9.30;99.90
51825;DHT22;37879;52.986;6.282;2022-12-29T09:18:30;9.20;99.90
51825;DHT22;37879;52.986;6.282;2022-12-29T09:20:58;9.10;99.90
51825;DHT22;37879;52.986;6.282;2022-12-29T09:23:24;9.10;99.90
51825;DHT22;37879;52.986;6.282;2022-12-29T09:25:49;9.10;99.90
51825;DHT22;37879;52.986;6.282;2022-12-29T09:28:15;9.10;99.90
51825;DHT22;37879;52.986;6.282;2022-12-29T09:30:41;9.10;99.90
51825;DHT22;37879;52.986;6.282;2022-12-29T09:33:07;9.20;99.90
51825;DHT22;37879;52.986;6.282;2022-12-29T09:35:32;9.20;99.90
51825;DHT22;37879;52.986;6.282;2022-12-29T09:37:58;9.20;99.90
51825;DHT22;37879;52.986;6.282;2022-12-29T09:40:30;9.20;99.90
51825;DHT22;37879;52.986;6.282;2022-12-29T09:43:05;9.20;99.90
51825;DHT22;37879;52.986;6.282;2022-12-29T09:45:42;9.20;99.90
51825;DHT22;37879;52.986;6.282;2022-12-29T09:48:18;9.10;99.90
51825;DHT22;37879;52.986;6.282;2022-12-29T09:50:49;9.20;99.90
51825;DHT22;37879;52.986;6.282;2022-12-29T09:53:21;9.20;99.90
51825;DHT22;37879;52.986;6.282;2022-12-29T09:55:55;9.10;99.90
51825;DHT22;37879;52.986;6.282;2022-12-29T10:01:38;9.10;99.90
51825;DHT22;37879;52.986;6.282;2022-12-29T10:04:07;9.10;99.90
51825;DHT22;37879;52.986;6.282;2022-12-29T10:06:40;9.00;99.90
51825;DHT22;37879;52.986;6.282;2022-12-29T10:09:29;9.00;99.90
51825;DHT22;37879;52.986;6.282;2022-12-29T10:25:47;8.70;99.90
51825;DHT22;37879;52.986;6.282;2022-12-29T10:28:19;8.70;99.90
51825;DHT22;37879;52.986;6.282;2022-12-29T10:30:47;8.70;99.90
51825;DHT22;37879;52.986;6.282;2022-12-29T10:33:22;8.70;99.90
51825;DHT22;37879;52.986;6.282;2022-12-29T10:35:50;8.70;99.90
51825;DHT22;37879;52.986;6.282;2022-12-29T10:38:38;8.70;99.90
51825;DHT22;37879;52.986;6.282;2022-12-29T10:41:15;8.70;99.90
51825;DHT22;37879;52.986;6.282;2022-12-29T10:43:45;8.70;99.90
51825;DHT22;37879;52.986;6.282;2022-12-29T10:46:18;8.70;99.90
51825;DHT22;37879;52.986;6.282;2022-12-29T10:48:45;8.70;99.90
51825;DHT22;37879;52.986;6.282;2022-12-29T10:51:20;8.70;99.90
51825;DHT22;37879;52.986;6.282;2022-12-29T10:53:57;8.80;99.90
51825;DHT22;37879;52.986;6.282;2022-12-29T10:58:54;8.80;99.90
51825;DHT22;37879;52.986;6.282;2022-12-29T11:01:23;8.90;99.90
51825;DHT22;37879;52.986;6.282;2022-12-29T11:04:03;8.90;99.90
51825;DHT22;37879;52.986;6.282;2022-12-29T11:06:29;8.90;99.90
51825;DHT22;37879;52.986;6.282;2022-12-29T11:08:59;8.90;99.90
51825;DHT22;37879;52.986;6.282;2022-12-29T11:11:33;8.80;99.90
51825;DHT22;37879;52.986;6.282;2022-12-29T11:14:18;8.80;99.90
51825;DHT22;37879;52.986;6.282;2022-12-29T11:16:44;8.80;99.90
51825;DHT22;37879;52.986;6.282;2022-12-29T11:19:32;8.80;99.90
51825;DHT22;37879;52.986;6.282;2022-12-29T11:22:21;8.80;99.90
51825;DHT22;37879;52.986;6.282;2022-12-29T11:24:47;8.70;99.90
51825;DHT22;37879;52.986;6.282;2022-12-29T11:27:22;8.70;99.90
51825;DHT22;37879;52.986;6.282;2022-12-29T11:29:50;8.70;99.90
51825;DHT22;37879;52.986;6.282;2022-12-29T11:32:22;8.70;99.90
51825;DHT22;37879;52.986;6.282;2022-12-29T11:34:48;8.80;99.90
51825;DHT22;37879;52.986;6.282;2022-12-29T11:40:05;8.90;99.90
51825;DHT22;37879;52.986;6.282;2022-12-29T11:45:33;9.10;99.90
51825;DHT22;37879;52.986;6.282;2022-12-29T11:50:33;9.30;99.90
51825;DHT22;37879;52.986;6.282;2022-12-29T11:53:04;9.40;99.90
51825;DHT22;37879;52.986;6.282;2022-12-29T11:55:31;9.40;99.90
51825;DHT22;37879;52.986;6.282;2022-12-29T11:58:00;9.50;99.90
51825;DHT22;37879;52.986;6.282;2022-12-29T12:00:30;9.50;99.90
51825;DHT22;37879;52.986;6.282;2022-12-29T12:05:48;9.80;99.90
51825;DHT22;37879;52.986;6.282;2022-12-29T12:08:41;9.70;99.90
51825;DHT22;37879;52.986;6.282;2022-12-29T12:11:14;9.80;99.90
51825;DHT22;37879;52.986;6.282;2022-12-29T12:14:00;9.70;99.90
51825;DHT22;37879;52.986;6.282;2022-12-29T12:16:33;9.70;99.90
51825;DHT22;37879;52.986;6.282;2022-12-29T12:22:01;9.60;99.90
51825;DHT22;37879;52.986;6.282;2022-12-29T12:24:37;9.50;99.90
51825;DHT22;37879;52.986;6.282;2022-12-29T12:27:21;9.60;99.90
51825;DHT22;37879;52.986;6.282;2022-12-29T12:35:13;9.50;99.90
51825;DHT22;37879;52.986;6.282;2022-12-29T12:37:52;9.60;99.90
51825;DHT22;37879;52.986;6.282;2022-12-29T12:43:09;9.50;99.90
51825;DHT22;37879;52.986;6.282;2022-12-29T12:45:52;9.50;99.90
51825;DHT22;37879;52.986;6.282;2022-12-29T12:51:14;9.60;99.90
51825;DHT22;37879;52.986;6.282;2022-12-29T13:02:10;9.60;99.90
51825;DHT22;37879;52.986;6.282;2022-12-29T13:10:17;9.60;99.90
51825;DHT22;37879;52.986;6.282;2022-12-29T13:24:34;9.40;99.90
51825;DHT22;37879;52.986;6.282;2022-12-29T13:32:38;9.40;99.90
51825;DHT22;37879;52.986;6.282;2022-12-29T13:38:01;9.40;99.90
51825;DHT22;37879;52.986;6.282;2022-12-29T13:40:32;9.40;99.90
51825;DHT22;37879;52.986;6.282;2022-12-29T13:43:02;9.50;99.90
51825;DHT22;37879;52.986;6.282;2022-12-29T13:45:30;9.40;99.90
51825;DHT22;37879;52.986;6.282;2022-12-29T13:50:33;9.40;99.90
51825;DHT22;37879;52.986;6.282;2022-12-29T13:53:35;9.40;99.90
51825;DHT22;37879;52.986;6.282;2022-12-29T13:56:20;9.40;99.90
51825;DHT22;37879;52.986;6.282;2022-12-29T13:58:54;9.40;99.90
51825;DHT22;37879;52.986;6.282;2022-12-29T14:01:32;9.30;99.90
51825;DHT22;37879;52.986;6.282;2022-12-29T14:04:00;9.30;99.90
51825;DHT22;37879;52.986;6.282;2022-12-29T14:06:29;9.20;99.90
51825;DHT22;37879;52.986;6.282;2022-12-29T14:08:59;9.20;99.90
51825;DHT22;37879;52.986;6.282;2022-12-29T14:11:36;9.10;99.90
51825;DHT22;37879;52.986;6.282;2022-12-29T14:14:19;9.10;99.90
51825;DHT22;37879;52.986;6.282;2022-12-29T14:16:46;9.10;99.90
51825;DHT22;37879;52.986;6.282;2022-12-29T14:19:16;9.00;99.90
51825;DHT22;37879;52.986;6.282;2022-12-29T14:22:01;9.00;99.90
51825;DHT22;37879;52.986;6.282;2022-12-29T14:34:54;8.80;99.90
51825;DHT22;37879;52.986;6.282;2022-12-29T14:40:17;8.70;99.90
51825;DHT22;37879;52.986;6.282;2022-12-29T14:42:44;8.70;99.90
51825;DHT22;37879;52.986;6.282;2022-12-29T14:47:45;8.60;99.90
51825;DHT22;37879;52.986;6.282;2022-12-29T14:57:51;8.50;99.90
51825;DHT22;37879;52.986;6.282;2022-12-29T15:00:22;8.50;99.90
51825;DHT22;37879;52.986;6.282;2022-12-29T15:03:38;8.40;99.90
51825;DHT22;37879;52.986;6.282;2022-12-29T15:05:37;8.50;99.90
51825;DHT22;37879;52.986;6.282;2022-12-29T15:08:07;8.40;99.90
51825;DHT22;37879;52.986;6.282;2022-12-29T15:10:40;8.40;99.90
51825;DHT22;37879;52.986;6.282;2022-12-29T15:13:20;8.40;99.90
51825;DHT22;37879;52.986;6.282;2022-12-29T15:15:46;8.40;99.90
51825;DHT22;37879;52.986;6.282;2022-12-29T15:18:28;8.40;99.90
51825;DHT22;37879;52.986;6.282;2022-12-29T15:21:03;8.40;99.90
51825;DHT22;37879;52.986;6.282;2022-12-29T15:23:32;8.30;99.90
51825;DHT22;37879;52.986;6.282;2022-12-29T15:26:16;8.30;99.90
51825;DHT22;37879;52.986;6.282;2022-12-29T15:28:51;8.20;99.90
51825;DHT22;37879;52.986;6.282;2022-12-29T15:31:22;8.20;99.90
51825;DHT22;37879;52.986;6.282;2022-12-29T15:33:54;8.20;99.90
51825;DHT22;37879;52.986;6.282;2022-12-29T15:38:46;8.10;99.90
51825;DHT22;37879;52.986;6.282;2022-12-29T15:46:53;8.10;99.90
51825;DHT22;37879;52.986;6.282;2022-12-29T15:49:20;8.10;99.90
51825;DHT22;37879;52.986;6.282;2022-12-29T15:51:46;8.10;99.90
51825;DHT22;37879;52.986;6.282;2022-12-29T15:54:23;8.10;99.90
51825;DHT22;37879;52.986;6.282;2022-12-29T15:56:49;8.10;99.90
51825;DHT22;37879;52.986;6.282;2022-12-29T15:59:33;8.10;99.90
51825;DHT22;37879;52.986;6.282;2022-12-29T16:02:01;8.20;99.90
51825;DHT22;37879;52.986;6.282;2022-12-29T16:04:30;8.20;99.90
51825;DHT22;37879;52.986;6.282;2022-12-29T16:07:00;8.20;99.90
51825;DHT22;37879;52.986;6.282;2022-12-29T16:09:34;8.20;99.90
51825;DHT22;37879;52.986;6.282;2022-12-29T16:12:07;8.20;99.90
51825;DHT22;37879;52.986;6.282;2022-12-29T16:14:45;8.30;99.90
51825;DHT22;37879;52.986;6.282;2022-12-29T16:17:14;8.30;99.90
51825;DHT22;37879;52.986;6.282;2022-12-29T16:19:59;8.30;99.90
51825;DHT22;37879;52.986;6.282;2022-12-29T16:22:35;8.40;99.90
51825;DHT22;37879;52.986;6.282;2022-12-29T16:25:13;8.40;99.90
51825;DHT22;37879;52.986;6.282;2022-12-29T16:27:43;8.50;99.90
51825;DHT22;37879;52.986;6.282;2022-12-29T16:30:24;8.50;99.90
51825;DHT22;37879;52.986;6.282;2022-12-29T16:32:52;8.50;99.90
51825;DHT22;37879;52.986;6.282;2022-12-29T16:35:26;8.50;99.90
51825;DHT22;37879;52.986;6.282;2022-12-29T16:38:21;8.50;99.90
51825;DHT22;37879;52.986;6.282;2022-12-29T16:40:55;8.50;99.90
51825;DHT22;37879;52.986;6.282;2022-12-29T16:43:25;8.40;99.90
51825;DHT22;37879;52.986;6.282;2022-12-29T16:48:21;8.40;99.90
51825;DHT22;37879;52.986;6.282;2022-12-29T16:50:49;8.30;99.90
51825;DHT22;37879;52.986;6.282;2022-12-29T16:53:38;8.30;99.90
51825;DHT22;37879;52.986;6.282;2022-12-29T16:56:26;8.30;99.90
51825;DHT22;37879;52.986;6.282;2022-12-29T16:59:06;8.30;99.90
51825;DHT22;37879;52.986;6.282;2022-12-29T17:01:39;8.20;99.90
51825;DHT22;37879;52.986;6.282;2022-12-29T17:04:07;8.20;99.90
51825;DHT22;37879;52.986;6.282;2022-12-29T17:06:33;8.20;99.90
51825;DHT22;37879;52.986;6.282;2022-12-29T17:08:59;8.10;99.90
51825;DHT22;37879;52.986;6.282;2022-12-29T17:11:30;8.00;99.90
51825;DHT22;37879;52.986;6.282;2022-12-29T17:14:36;8.00;99.90
51825;DHT22;37879;52.986;6.282;2022-12-29T17:17:09;7.90;99.90
51825;DHT22;37879;52.986;6.282;2022-12-29T17:19:37;7.80;99.90
51825;DHT22;37879;52.986;6.282;2022-12-29T17:22:09;7.80;99.90
51825;DHT22;37879;52.986;6.282;2022-12-29T17:24:37;7.70;99.90
51825;DHT22;37879;52.986;6.282;2022-12-29T17:27:03;7.70;99.90
51825;DHT22;37879;52.986;6.282;2022-12-29T17:29:33;7.60;99.90
51825;DHT22;37879;52.986;6.282;2022-12-29T17:32:01;7.60;99.90
51825;DHT22;37879;52.986;6.282;2022-12-29T17:34:28;7.60;99.90
51825;DHT22;37879;52.986;6.282;2022-12-29T17:36:54;7.60;99.90
51825;DHT22;37879;52.986;6.282;2022-12-29T17:39:20;7.50;99.90
51825;DHT22;37879;52.986;6.282;2022-12-29T17:41:46;7.50;99.90
51825;DHT22;37879;52.986;6.282;2022-12-29T17:44:17;7.50;99.90
51825;DHT22;37879;52.986;6.282;2022-12-29T17:46:44;7.50;99.90
51825;DHT22;37879;52.986;6.282;2022-12-29T17:49:12;7.60;99.90
51825;DHT22;37879;52.986;6.282;2022-12-29T17:51:39;7.60;99.90
51825;DHT22;37879;52.986;6.282;2022-12-29T17:54:13;7.60;99.90
51825;DHT22;37879;52.986;6.282;2022-12-29T17:56:42;7.60;99.90
51825;DHT22;37879;52.986;6.282;2022-12-29T17:59:11;7.60;99.90
51825;DHT22;37879;52.986;6.282;2022-12-29T18:01:39;7.60;99.90
51825;DHT22;37879;52.986;6.282;2022-12-29T18:04:04;7.60;99.90
51825;DHT22;37879;52.986;6.282;2022-12-29T18:06:30;7.60;99.90
51825;DHT22;37879;52.986;6.282;2022-12-29T18:08:56;7.60;99.90
51825;DHT22;37879;52.986;6.282;2022-12-29T18:11:23;7.60;99.90
51825;DHT22;37879;52.986;6.282;2022-12-29T18:13:51;7.60;99.90
51825;DHT22;37879;52.986;6.282;2022-12-29T18:16:16;7.70;99.90
51825;DHT22;37879;52.986;6.282;2022-12-29T18:18:43;7.70;99.90
51825;DHT22;37879;52.986;6.282;2022-12-29T18:21:17;7.70;99.90
51825;DHT22;37879;52.986;6.282;2022-12-29T18:23:44;7.60;99.90
51825;DHT22;37879;52.986;6.282;2022-12-29T18:26:20;7.60;99.90
51825;DHT22;37879;52.986;6.282;2022-12-29T18:28:48;7.70;99.90
51825;DHT22;37879;52.986;6.282;2022-12-29T18:31:23;7.80;99.90
51825;DHT22;37879;52.986;6.282;2022-12-29T18:33:50;7.80;99.90